Terminal Aerodrome Forecast
Issued by NWS Binghamton, NY

Home | Current Version | Previous Version | Text Only | Print | Product List | Glossary On
Versions: 1 2 3 4 5 6 7 8 9 10 11 12 13 14 15 16 17 18 19 20 21 22 23
000
FTUS41 KBGM 111138
TAFBGM
TAF
KBGM 111138Z 1112/1212 22004KT P6SM SCT070 BKN120
     FM111600 19006KT P6SM OVC035
      TEMPO 1119/1122 2SM -SN OVC020
     FM112200 17010KT 2SM -SN SCT007 OVC015
     FM120400 17010KT 1/2SM SN OVC007
     FM120900 18011KT 2SM -SN OVC009=

USA.gov is the U.S. government's official web portal to all federal, state and local government web resources and services.